Time;durP1;ratioP1;P1;durP2;ratioP2;P2;SDS_P1;SDS_P2;PMS_P1;PMS_P2;Temp;Humidity;BMP_temperature;BMP_pressure;BME280_temperature;BME280_humidity;BME280_pressure;Samples;Min_cycle;Max_cycle;Signal;HPM_P1;HPM_P2
2023/04/23 00:02:14;;;;;;;;;;;;;;;28.73;25.52;100842.16;5101531;28;1418;-34
2023/04/23 00:04:40;;;;;;;;;;;;;;;28.72;25.79;100833.22;5096695;28;1058;-37
2023/04/23 00:07:05;;;;;;;;;;;;;;;29.16;25.39;100832.41;5078012;28;1138;-37
2023/04/23 00:09:31;;;;;;;;;;;;;;;29.29;25.03;100831.66;5096626;28;1070;-35
2023/04/23 00:11:58;;;;;;;;;;;;;;;28.89;25.42;100832.13;5096253;28;1241;-35
2023/04/23 00:14:23;;;;;;;;;;;;;;;28.67;25.73;100829.38;5108538;28;1981;-36
2023/04/23 00:16:49;;;;;;;;;;;;;;;28.95;25.77;100828.63;5096613;28;1114;-33
2023/04/23 00:19:14;;;;;;;;;;;;;;;28.71;25.92;100826.09;5096457;28;1161;-31
2023/04/23 00:21:40;;;;;;;;;;;;;;;28.80;25.94;100823.28;5102671;28;1077;-38
2023/04/23 00:24:06;;;;;;;;;;;;;;;29.00;25.71;100817.22;5096773;28;1114;-36
2023/04/23 00:26:31;;;;;;;;;;;;;;;29.03;25.36;100819.59;5102062;28;833;-34
2023/04/23 00:28:57;;;;;;;;;;;;;;;28.95;25.38;100821.34;5096017;28;1070;-36
2023/04/23 00:31:23;;;;;;;;;;;;;;;29.07;25.31;100821.69;5096669;28;1023;-35
2023/04/23 00:33:48;;;;;;;;;;;;;;;28.88;25.58;100820.44;5109335;28;1130;-33
2023/04/23 00:36:15;;;;;;;;;;;;;;;28.95;25.38;100823.22;5077903;28;1959;-31
2023/04/23 00:38:41;;;;;;;;;;;;;;;28.95;24.74;100815.94;5096269;28;879;-34
2023/04/23 00:41:06;;;;;;;;;;;;;;;28.20;25.29;100818.81;5096303;28;1201;-33
2023/04/23 00:43:34;;;;;;;;;;;;;;;27.65;26.19;100817.22;5077486;28;1240;-35
2023/04/23 00:46:00;;;;;;;;;;;;;;;27.24;27.08;100818.47;5078092;28;1047;-35
2023/04/23 00:48:25;;;;;;;;;;;;;;;27.55;26.58;100820.19;5096187;28;1214;-35
2023/04/23 00:50:59;;;;;;;;;;;;;;;27.84;25.86;100821.25;5077886;28;971;-36
2023/04/23 00:53:25;;;;;;;;;;;;;;;27.65;26.25;100828.03;5100052;28;1026;-37
2023/04/23 00:55:51;;;;;;;;;;;;;;;27.74;26.24;100820.72;5099831;28;1905;-35
2023/04/23 00:58:17;;;;;;;;;;;;;;;28.40;25.73;100821.81;5100165;28;1000;-33
2023/04/23 01:00:45;;;;;;;;;;;;;;;28.52;25.10;100824.88;5101188;28;1121;-36
2023/04/23 01:03:11;;;;;;;;;;;;;;;28.13;25.83;100828.75;5099875;28;1253;-31
2023/04/23 01:05:38;;;;;;;;;;;;;;;27.84;26.21;100826.69;5099439;28;1138;-39
2023/04/23 01:08:03;;;;;;;;;;;;;;;27.86;25.79;100830.03;5087790;28;1340;-36
2023/04/23 01:10:31;;;;;;;;;;;;;;;28.16;25.68;100815.66;5099515;28;1133;-37
2023/04/23 01:12:56;;;;;;;;;;;;;;;27.84;26.15;100817.75;5083916;28;1074;-35
2023/04/23 01:15:22;;;;;;;;;;;;;;;27.69;26.39;100817.75;5087745;28;1910;-31
2023/04/23 01:17:47;;;;;;;;;;;;;;;28.19;25.66;100814.47;5099987;28;1120;-31
2023/04/23 01:20:14;;;;;;;;;;;;;;;28.33;25.34;100819.03;5099777;28;1023;-37
2023/04/23 01:22:39;;;;;;;;;;;;;;;27.96;25.85;100812.72;5107757;28;1059;-36
2023/04/23 01:25:06;;;;;;;;;;;;;;;27.67;26.33;100820.59;5099090;28;1347;-34
2023/04/23 01:27:34;;;;;;;;;;;;;;;27.94;26.34;100812.91;5107130;28;1114;-36
2023/04/23 01:30:00;;;;;;;;;;;;;;;28.30;25.15;100811.25;5099230;28;1491;-36
2023/04/23 01:32:26;;;;;;;;;;;;;;;27.69;26.20;100812.34;5099143;28;1055;-36
2023/04/23 01:34:53;;;;;;;;;;;;;;;28.01;25.80;100812.97;5080113;28;1906;-37
2023/04/23 01:37:18;;;;;;;;;;;;;;;28.36;25.50;100815.94;5081196;28;1241;-35
2023/04/23 01:39:44;;;;;;;;;;;;;;;28.26;25.47;100818.06;5077807;28;1117;-34
2023/04/23 01:42:10;;;;;;;;;;;;;;;27.71;26.12;100821.91;5099081;28;1083;-35
2023/04/23 01:44:35;;;;;;;;;;;;;;;27.62;26.27;100821.16;5080580;28;1226;-35
2023/04/23 01:47:01;;;;;;;;;;;;;;;28.27;25.80;100814.34;5099121;28;1110;-32
2023/04/23 01:49:27;;;;;;;;;;;;;;;27.98;25.61;100816.03;5084672;28;1106;-34
2023/04/23 01:51:52;;;;;;;;;;;;;;;27.68;26.31;100818.72;5080564;28;1042;-34
2023/04/23 01:54:18;;;;;;;;;;;;;;;27.85;25.84;100816.72;5080618;28;1906;-34
2023/04/23 01:56:43;;;;;;;;;;;;;;;28.31;25.34;100820.22;5098624;28;1154;-37
2023/04/23 01:59:09;;;;;;;;;;;;;;;28.14;25.22;100814.19;5082714;28;1214;-37
2023/04/23 02:01:42;;;;;;;;;;;;;;;27.77;25.92;100814.94;5101369;28;1066;-35
2023/04/23 02:04:08;;;;;;;;;;;;;;;27.50;26.33;100819.91;5080640;28;1219;-34
2023/04/23 02:06:33;;;;;;;;;;;;;;;28.67;25.47;100818.56;5080665;28;1309;-36
2023/04/23 02:08:59;;;;;;;;;;;;;;;27.79;25.77;100821.00;5080455;28;1097;-35
2023/04/23 02:11:25;;;;;;;;;;;;;;;27.67;26.22;100831.41;5080630;28;1172;-34
2023/04/23 02:13:50;;;;;;;;;;;;;;;28.14;25.70;100827.69;5080094;28;1656;-33
2023/04/23 02:16:16;;;;;;;;;;;;;;;28.29;25.22;100828.53;5097997;28;1984;-35
2023/04/23 02:18:41;;;;;;;;;;;;;;;28.05;25.53;100829.66;5080426;28;1174;-36
2023/04/23 02:21:07;;;;;;;;;;;;;;;27.63;26.21;100830.09;5100047;28;1042;-34
2023/04/23 02:23:32;;;;;;;;;;;;;;;27.37;26.62;100839.47;5103890;28;1072;-35
2023/04/23 02:25:58;;;;;;;;;;;;;;;28.22;25.87;100836.56;5104457;28;1127;-34
2023/04/23 02:28:23;;;;;;;;;;;;;;;28.08;25.30;100834.69;5103479;28;1114;-34
2023/04/23 02:30:49;;;;;;;;;;;;;;;27.54;25.95;100834.75;5079804;28;1157;-34
2023/04/23 02:33:14;;;;;;;;;;;;;;;27.97;25.87;100841.41;5097694;28;1162;-33
2023/04/23 02:35:40;;;;;;;;;;;;;;;28.28;25.26;100834.94;5080681;28;2001;-35
2023/04/23 02:38:06;;;;;;;;;;;;;;;28.16;25.19;100837.28;5083723;28;1229;-37
2023/04/23 02:40:31;;;;;;;;;;;;;;;27.74;25.88;100839.66;5079619;28;1050;-32
2023/04/23 02:42:57;;;;;;;;;;;;;;;27.51;26.31;100838.63;5097501;28;1154;-34
2023/04/23 02:45:22;;;;;;;;;;;;;;;27.55;26.29;100836.41;5079963;28;1286;-34
2023/04/23 02:47:49;;;;;;;;;;;;;;;27.74;25.80;100836.94;5097552;28;1205;-35
2023/04/23 02:50:15;;;;;;;;;;;;;;;27.62;25.87;100839.22;5098196;28;1049;-33
2023/04/23 02:52:40;;;;;;;;;;;;;;;27.36;26.21;100837.78;5108377;28;1265;-34
2023/04/23 02:55:07;;;;;;;;;;;;;;;27.77;26.06;100835.72;5082254;28;1905;-34
2023/04/23 02:57:33;;;;;;;;;;;;;;;28.12;25.31;100838.72;5078924;28;1289;-34
2023/04/23 02:59:59;;;;;;;;;;;;;;;27.94;25.35;100839.94;5079627;28;1196;-33
2023/04/23 03:02:32;;;;;;;;;;;;;;;26.67;22.82;100831.34;5090606;28;1320;-36
2023/04/23 03:04:57;;;;;;;;;;;;;;;24.11;24.88;100824.84;5079109;28;1221;-33
2023/04/23 03:07:23;;;;;;;;;;;;;;;24.20;26.38;100830.13;5081605;28;1284;-30
2023/04/23 03:09:49;;;;;;;;;;;;;;;24.80;25.04;100831.97;5108540;28;1013;-33
2023/04/23 03:12:15;;;;;;;;;;;;;;;26.15;24.93;100827.19;5097095;28;1070;-36
2023/04/23 03:14:40;;;;;;;;;;;;;;;27.50;22.69;100838.81;5105791;28;1957;-29
2023/04/23 03:17:06;;;;;;;;;;;;;;;27.92;22.46;100841.97;5078838;28;1078;-34
2023/04/23 03:19:32;;;;;;;;;;;;;;;28.24;22.10;100845.31;5078523;28;1154;-38
2023/04/23 03:21:58;;;;;;;;;;;;;;;28.62;22.01;100842.66;5088010;28;1477;-35
2023/04/23 03:24:23;;;;;;;;;;;;;;;28.72;22.06;100841.31;5079272;28;1124;-36
2023/04/23 03:26:49;;;;;;;;;;;;;;;28.92;22.02;100842.56;5088719;28;1091;-35
2023/04/23 03:29:14;;;;;;;;;;;;;;;29.00;22.22;100841.59;5097040;28;1153;-34
2023/04/23 03:31:40;;;;;;;;;;;;;;;26.00;26.04;100851.31;5078897;28;1853;-31
2023/04/23 03:34:08;;;;;;;;;;;;;;;25.35;26.99;100845.84;5078778;28;1976;-35
2023/04/23 03:36:34;;;;;;;;;;;;;;;28.25;23.47;100846.16;5078874;28;1401;-30
2023/04/23 03:39:01;;;;;;;;;;;;;;;28.24;23.32;100841.78;5082851;28;1373;-32
2023/04/23 03:41:32;;;;;;;;;;;;;;;27.03;23.39;100841.56;5106200;28;1146;-34
2023/04/23 03:43:59;;;;;;;;;;;;;;;26.36;22.93;100850.03;5078715;28;1114;-34
2023/04/23 03:46:38;;;;;;;;;;;;;;;25.88;23.16;100848.16;5078711;28;1436;-30
2023/04/23 03:49:03;;;;;;;;;;;;;;;25.68;23.89;100851.22;5096410;28;991;-30
2023/04/23 03:51:30;;;;;;;;;;;;;;;24.78;24.63;100858.19;5090316;28;1270;-32
2023/04/23 03:53:56;;;;;;;;;;;;;;;27.14;22.95;100853.84;5077875;28;1407;-30
2023/04/23 03:56:37;;;;;;;;;;;;;;;28.13;21.76;100861.19;5081145;28;1308;-34
2023/04/23 03:59:28;;;;;;;;;;;;;;;28.60;21.48;100865.34;5101706;28;1347;-34
2023/04/23 04:01:57;;;;;;;;;;;;;;;28.39;20.34;100863.44;5085762;28;1455;-30
2023/04/23 04:04:24;;;;;;;;;;;;;;;25.36;23.65;100857.47;5094790;28;1200;-31
2023/04/23 04:06:50;;;;;;;;;;;;;;;24.79;24.83;100867.97;5116565;28;1039;-29
2023/04/23 04:09:16;;;;;;;;;;;;;;;24.14;25.25;100867.50;5116800;28;1045;-33
2023/04/23 04:11:41;;;;;;;;;;;;;;;24.38;26.94;100874.00;5105418;28;1084;-33
2023/04/23 04:14:07;;;;;;;;;;;;;;;27.96;22.64;100883.81;5099227;28;1053;-34
2023/04/23 04:16:33;;;;;;;;;;;;;;;28.99;21.51;100889.53;5096394;28;2691;-35
2023/04/23 04:19:00;;;;;;;;;;;;;;;28.68;22.33;100888.75;5096124;28;1027;-32
2023/04/23 04:21:27;;;;;;;;;;;;;;;29.76;21.19;100893.56;5100553;28;1074;-29
2023/04/23 04:23:52;;;;;;;;;;;;;;;30.03;21.23;100891.84;5099089;28;1149;-30
2023/04/23 04:26:18;;;;;;;;;;;;;;;30.00;21.28;100894.09;5098864;28;1117;-30
2023/04/23 04:28:44;;;;;;;;;;;;;;;29.86;21.56;100899.47;5103084;28;1487;-32
2023/04/23 04:31:09;;;;;;;;;;;;;;;30.01;21.38;100898.50;5100568;28;1043;-28
2023/04/23 04:33:38;;;;;;;;;;;;;;;30.13;21.37;100899.63;5100120;28;1150;-34
2023/04/23 04:36:03;;;;;;;;;;;;;;;28.08;24.27;100897.72;5103646;28;1901;-31
2023/04/23 04:38:29;;;;;;;;;;;;;;;28.98;23.42;100895.16;5102413;28;1288;-29
2023/04/23 04:40:57;;;;;;;;;;;;;;;30.14;21.68;100900.47;5100024;28;1309;-32
2023/04/23 04:43:23;;;;;;;;;;;;;;;27.96;24.78;100900.06;5099648;28;1241;-32
2023/04/23 04:45:49;;;;;;;;;;;;;;;27.59;25.15;100897.16;5100391;28;1244;-32
2023/04/23 04:48:15;;;;;;;;;;;;;;;29.50;22.91;100906.66;5099603;28;1210;-29
2023/04/23 04:50:40;;;;;;;;;;;;;;;29.74;22.69;100907.31;5100010;28;1434;-29
2023/04/23 04:53:06;;;;;;;;;;;;;;;29.72;22.61;100905.81;5101074;28;1229;-28
2023/04/23 04:55:31;;;;;;;;;;;;;;;29.98;22.43;100913.28;5100480;28;1914;-30
2023/04/23 04:57:57;;;;;;;;;;;;;;;30.09;22.48;100911.91;5102075;28;1526;-29
2023/04/23 05:00:28;;;;;;;;;;;;;;;30.19;22.34;100914.28;5100203;28;1248;-28
2023/04/23 05:02:53;;;;;;;;;;;;;;;30.29;22.38;100909.34;5099932;28;1230;-30
2023/04/23 05:05:20;;;;;;;;;;;;;;;29.29;23.36;100908.38;5100346;28;1217;-33
2023/04/23 05:07:45;;;;;;;;;;;;;;;29.25;23.75;100904.38;5100550;28;1106;-29
2023/04/23 05:10:11;;;;;;;;;;;;;;;29.82;23.14;100906.31;5099841;28;1194;-30
2023/04/23 05:12:40;;;;;;;;;;;;;;;30.24;22.44;100914.53;5100483;28;1137;-27
2023/04/23 05:15:06;;;;;;;;;;;;;;;30.37;22.37;100907.50;5099285;28;1984;-31
2023/04/23 05:17:32;;;;;;;;;;;;;;;30.42;22.47;100908.56;5099460;28;1151;-27
2023/04/23 05:19:57;;;;;;;;;;;;;;;30.35;22.48;100906.84;5101541;28;1201;-30
2023/04/23 05:22:23;;;;;;;;;;;;;;;30.31;22.67;100917.28;5100841;28;1138;-31
2023/04/23 05:24:48;;;;;;;;;;;;;;;28.76;23.98;100911.31;5099328;28;1050;-30
2023/04/23 05:27:14;;;;;;;;;;;;;;;29.36;23.83;100911.16;5105729;28;1229;-28
2023/04/23 05:29:40;;;;;;;;;;;;;;;30.49;22.27;100916.75;5101022;28;1035;-31
2023/04/23 05:32:05;;;;;;;;;;;;;;;28.76;24.44;100914.03;5098816;28;1284;-31
2023/04/23 05:34:31;;;;;;;;;;;;;;;28.28;25.16;100916.09;5099197;28;1976;-28
2023/04/23 05:36:56;;;;;;;;;;;;;;;29.56;23.66;100918.59;5098669;28;1062;-26
2023/04/23 05:39:22;;;;;;;;;;;;;;;29.96;23.20;100917.25;5104568;28;1065;-30
2023/04/23 05:41:47;;;;;;;;;;;;;;;30.25;22.93;100918.91;5104259;28;1053;-30
2023/04/23 05:44:13;;;;;;;;;;;;;;;30.60;22.32;100918.03;5099083;28;1120;-28
2023/04/23 05:46:38;;;;;;;;;;;;;;;30.37;22.37;100919.19;5098966;28;1098;-31
2023/04/23 05:49:04;;;;;;;;;;;;;;;28.87;24.71;100913.53;5099128;28;1138;-26
2023/04/23 05:51:29;;;;;;;;;;;;;;;29.78;23.55;100922.13;5103672;28;1114;-28
2023/04/23 05:53:55;;;;;;;;;;;;;;;30.36;22.87;100920.25;5099252;28;1026;-27
2023/04/23 05:56:21;;;;;;;;;;;;;;;30.51;22.75;100914.66;5098131;28;1984;-28
2023/04/23 05:58:46;;;;;;;;;;;;;;;30.81;22.48;100918.97;5099158;28;1024;-28
2023/04/23 06:01:12;;;;;;;;;;;;;;;30.93;22.12;100913.75;5099070;28;1059;-26
2023/04/23 06:03:40;;;;;;;;;;;;;;;29.25;23.77;100912.50;5105279;28;1142;-28
2023/04/23 06:06:06;;;;;;;;;;;;;;;29.38;24.41;100909.06;5101442;28;1184;-29
2023/04/23 06:08:31;;;;;;;;;;;;;;;30.51;22.87;100922.78;5098436;28;1182;-27
2023/04/23 06:10:57;;;;;;;;;;;;;;;30.95;22.30;100916.31;5098547;28;1066;-28
2023/04/23 06:13:23;;;;;;;;;;;;;;;29.61;23.58;100920.75;5098346;28;1233;-28
2023/04/23 06:15:48;;;;;;;;;;;;;;;28.78;24.73;100920.09;5101517;28;1974;-29
2023/04/23 06:18:13;;;;;;;;;;;;;;;30.00;23.71;100927.50;5098462;28;1146;-31
2023/04/23 06:20:39;;;;;;;;;;;;;;;30.61;22.85;100919.72;5098518;28;1109;-27
2023/04/23 06:23:05;;;;;;;;;;;;;;;30.86;22.42;100919.22;5105715;28;1169;-27
2023/04/23 06:25:30;;;;;;;;;;;;;;;29.04;24.54;100921.44;5097605;28;1089;-28
2023/04/23 06:27:57;;;;;;;;;;;;;;;29.56;24.18;100926.75;5105938;28;1158;-29
2023/04/23 06:30:26;;;;;;;;;;;;;;;29.49;23.82;100920.41;5082097;28;1153;-29
2023/04/23 06:32:52;;;;;;;;;;;;;;;29.38;24.26;100916.38;5079860;28;1174;-29
2023/04/23 06:35:17;;;;;;;;;;;;;;;29.57;24.03;100920.28;5097861;28;1917;-31
2023/04/23 06:37:42;;;;;;;;;;;;;;;30.01;23.68;100926.44;5098227;28;1015;-29
2023/04/23 06:40:08;;;;;;;;;;;;;;;28.72;25.22;100918.97;5101174;28;1081;-30
2023/04/23 06:42:34;;;;;;;;;;;;;;;28.54;25.23;100922.09;5098279;28;1188;-31
2023/04/23 06:45:26;;;;;;;;;;;;;;;29.89;23.89;100922.63;5074683;28;1422;-30
2023/04/23 06:47:51;;;;;;;;;;;;;;;29.03;24.61;100917.06;5109240;28;1114;-29
2023/04/23 06:50:17;;;;;;;;;;;;;;;28.48;25.56;100920.97;5108249;28;1161;-28
2023/04/23 06:52:42;;;;;;;;;;;;;;;29.57;24.32;100926.53;5110314;28;1146;-28
2023/04/23 06:55:08;;;;;;;;;;;;;;;29.99;23.76;100922.28;5098299;28;1901;-31
2023/04/23 06:57:33;;;;;;;;;;;;;;;28.56;25.65;100925.47;5098183;28;1209;-31
2023/04/23 06:59:59;;;;;;;;;;;;;;;28.90;25.54;100926.69;5103695;28;1035;-28
2023/04/23 07:02:30;;;;;;;;;;;;;;;29.92;23.88;100936.63;5084517;28;1405;-29
2023/04/23 07:04:56;;;;;;;;;;;;;;;28.76;25.07;100920.25;5102849;28;905;-27
2023/04/23 07:07:21;;;;;;;;;;;;;;;28.47;25.52;100927.41;5097296;28;1133;-31
2023/04/23 07:09:47;;;;;;;;;;;;;;;29.74;24.15;100928.16;5097496;28;1089;-29
2023/04/23 07:12:12;;;;;;;;;;;;;;;29.00;24.66;100926.41;5101605;28;1026;-31
2023/04/23 07:14:38;;;;;;;;;;;;;;;28.42;25.80;100929.84;5097405;28;1909;-32
2023/04/23 07:17:03;;;;;;;;;;;;;;;29.49;24.78;100936.69;5109655;28;1197;-31
2023/04/23 07:19:29;;;;;;;;;;;;;;;29.60;24.20;100936.19;5097592;28;1110;-30
2023/04/23 07:21:54;;;;;;;;;;;;;;;28.54;25.38;100928.34;5104701;28;1046;-32
2023/04/23 07:24:20;;;;;;;;;;;;;;;28.68;25.90;100929.34;5097017;28;1240;-31
2023/04/23 07:26:45;;;;;;;;;;;;;;;30.03;23.84;100929.00;5097420;28;1228;-29
2023/04/23 07:29:12;;;;;;;;;;;;;;;28.59;25.30;100930.50;5103492;28;1289;-28
2023/04/23 07:31:40;;;;;;;;;;;;;;;28.36;25.89;100923.34;5099236;28;1039;-30
2023/04/23 07:34:06;;;;;;;;;;;;;;;30.08;23.95;100922.97;5096931;28;1107;-33
2023/04/23 07:36:32;;;;;;;;;;;;;;;28.76;25.14;100928.38;5096599;28;1979;-31
2023/04/23 07:38:59;;;;;;;;;;;;;;;28.40;25.83;100923.78;5097013;28;1225;-31
2023/04/23 07:41:24;;;;;;;;;;;;;;;29.87;24.10;100930.97;5110447;28;1062;-32
2023/04/23 07:43:50;;;;;;;;;;;;;;;28.84;24.96;100925.56;5096968;28;1125;-32
2023/04/23 07:46:15;;;;;;;;;;;;;;;28.34;25.57;100920.78;5078864;28;1129;-29
2023/04/23 07:48:41;;;;;;;;;;;;;;;29.65;24.34;100927.44;5109114;28;1121;-31
2023/04/23 07:51:07;;;;;;;;;;;;;;;28.96;24.73;100920.50;5096723;28;1146;-31
2023/04/23 07:53:32;;;;;;;;;;;;;;;28.52;25.68;100918.72;5104235;28;872;-28
2023/04/23 07:55:58;;;;;;;;;;;;;;;29.52;24.62;100925.44;5097100;28;1902;-30
2023/04/23 07:58:24;;;;;;;;;;;;;;;29.08;24.57;100918.16;5097057;28;1074;-32
2023/04/23 08:00:50;;;;;;;;;;;;;;;28.45;25.53;100916.78;5078613;28;1055;-31
2023/04/23 08:03:15;;;;;;;;;;;;;;;29.38;24.75;100913.66;5096986;28;1062;-32
2023/04/23 08:05:41;;;;;;;;;;;;;;;29.19;24.41;100908.69;5098383;28;1037;-28
2023/04/23 08:08:07;;;;;;;;;;;;;;;28.54;25.33;100908.56;5096142;28;1130;-29
2023/04/23 08:10:33;;;;;;;;;;;;;;;29.18;25.06;100911.56;5096469;28;1160;-29
2023/04/23 08:12:58;;;;;;;;;;;;;;;29.42;24.45;100914.94;5096906;28;1042;-27
2023/04/23 08:15:24;;;;;;;;;;;;;;;28.56;25.33;100910.03;5096462;28;1914;-29
2023/04/23 08:17:49;;;;;;;;;;;;;;;28.84;25.66;100911.22;5105329;28;910;-29
2023/04/23 08:20:15;;;;;;;;;;;;;;;30.01;23.81;100910.19;5096204;28;1201;-29
2023/04/23 08:22:41;;;;;;;;;;;;;;;28.58;25.76;100899.03;5103840;28;1154;-31
2023/04/23 08:25:06;;;;;;;;;;;;;;;28.57;25.91;100902.78;5097084;28;1065;-28
2023/04/23 08:27:32;;;;;;;;;;;;;;;30.13;23.75;100901.50;5096737;28;1193;-30
2023/04/23 08:29:57;;;;;;;;;;;;;;;28.68;25.18;100898.72;5099178;28;1191;-28
2023/04/23 08:32:23;;;;;;;;;;;;;;;28.54;25.05;100903.16;5096401;28;1038;-30
2023/04/23 08:34:48;;;;;;;;;;;;;;;29.82;23.95;100901.75;5096403;28;1905;-32
2023/04/23 08:37:14;;;;;;;;;;;;;;;29.01;24.32;100900.16;5096340;28;1055;-32
2023/04/23 08:39:40;;;;;;;;;;;;;;;28.61;24.97;100887.84;5096420;28;1030;-32
2023/04/23 08:42:16;;;;;;;;;;;;;;;29.93;23.93;100900.34;5105967;28;887;-31
2023/04/23 08:44:42;;;;;;;;;;;;;;;28.86;24.77;100887.50;5078451;28;1131;-30
2023/04/23 08:47:09;;;;;;;;;;;;;;;28.63;25.07;100885.75;5061470;28;1048;-28
2023/04/23 08:49:35;;;;;;;;;;;;;;;29.75;24.15;100891.84;5078411;28;1090;-36
2023/04/23 08:52:04;;;;;;;;;;;;;;;29.24;24.26;100888.31;5078548;28;1217;-32
2023/04/23 08:54:30;;;;;;;;;;;;;;;28.75;24.76;100894.22;5081766;28;1988;-34
2023/04/23 08:56:58;;;;;;;;;;;;;;;29.68;24.24;100894.53;5078220;28;1124;-32
2023/04/23 08:59:28;;;;;;;;;;;;;;;29.32;24.25;100897.16;5096319;28;1110;-29
2023/04/23 09:01:54;;;;;;;;;;;;;;;28.72;24.91;100897.31;5101809;28;1250;-31
2023/04/23 09:04:21;;;;;;;;;;;;;;;29.62;24.23;100898.88;5083482;28;939;-30
2023/04/23 09:06:46;;;;;;;;;;;;;;;29.58;23.69;100897.53;5108157;28;1088;-30
2023/04/23 09:09:13;;;;;;;;;;;;;;;28.80;25.06;100897.22;5096341;28;1142;-34
2023/04/23 09:11:39;;;;;;;;;;;;;;;29.06;24.90;100903.16;5077893;28;1125;-31
2023/04/23 09:14:05;;;;;;;;;;;;;;;29.49;23.94;100906.88;5081734;28;1229;-32
2023/04/23 09:16:30;;;;;;;;;;;;;;;28.78;24.86;100906.56;5101251;28;1909;-34
2023/04/23 09:18:56;;;;;;;;;;;;;;;29.20;24.84;100918.50;5104762;28;1201;-33
2023/04/23 09:21:21;;;;;;;;;;;;;;;29.80;23.89;100922.78;5085047;28;1139;-29
2023/04/23 09:23:49;;;;;;;;;;;;;;;28.75;25.06;100920.47;5120331;28;1229;-28
2023/04/23 09:26:21;;;;;;;;;;;;;;;28.57;25.44;100914.44;5120112;28;1173;-28
2023/04/23 09:28:52;;;;;;;;;;;;;;;29.91;23.95;100915.16;5116216;28;1296;-31
2023/04/23 09:31:21;;;;;;;;;;;;;;;28.75;25.40;100917.75;5099042;28;1194;-30
2023/04/23 09:33:51;;;;;;;;;;;;;;;28.59;25.61;100917.78;5100563;28;1368;-32
2023/04/23 09:36:18;;;;;;;;;;;;;;;29.97;24.13;100917.06;5099711;28;1969;-34
2023/04/23 09:38:44;;;;;;;;;;;;;;;29.07;24.80;100924.63;5081621;28;1286;-31
2023/04/23 09:41:22;;;;;;;;;;;;;;;28.89;24.99;100926.88;5082624;28;1177;-34
2023/04/23 09:43:48;;;;;;;;;;;;;;;29.81;24.35;100924.44;5119834;27;1016;-30
2023/04/23 09:46:13;;;;;;;;;;;;;;;29.32;24.35;100920.69;5116594;27;912;-32
2023/04/23 09:48:39;;;;;;;;;;;;;;;28.79;25.10;100914.50;5115248;27;874;-33
2023/04/23 09:51:05;;;;;;;;;;;;;;;29.55;24.53;100915.06;5119768;27;878;-29
2023/04/23 09:53:30;;;;;;;;;;;;;;;29.74;24.16;100911.88;5122165;27;1111;-31
2023/04/23 09:55:56;;;;;;;;;;;;;;;28.70;25.05;100900.22;5102803;28;1910;-31
2023/04/23 09:58:21;;;;;;;;;;;;;;;28.69;25.40;100887.72;5117113;27;851;-30
2023/04/23 10:00:47;;;;;;;;;;;;;;;30.24;23.75;100900.13;5104219;27;1144;-31
2023/04/23 10:03:13;;;;;;;;;;;;;;;28.84;25.14;100886.84;5099950;27;1079;-32
2023/04/23 10:05:42;;;;;;;;;;;;;;;28.63;25.67;100883.06;5102454;27;866;-33
2023/04/23 10:08:07;;;;;;;;;;;;;;;30.00;24.30;100883.25;5119634;27;821;-29
2023/04/23 10:10:33;;;;;;;;;;;;;;;29.04;24.75;100888.94;5114720;27;881;-29
2023/04/23 10:12:59;;;;;;;;;;;;;;;28.75;25.27;100879.84;5118287;27;850;-29
2023/04/23 10:15:25;;;;;;;;;;;;;;;29.79;24.40;100888.56;5122262;27;2343;-31
2023/04/23 10:17:51;;;;;;;;;;;;;;;28.93;24.94;100876.72;5117269;27;908;-30
2023/04/23 10:20:16;;;;;;;;;;;;;;;28.71;25.66;100876.72;5122536;27;953;-32
2023/04/23 10:22:43;;;;;;;;;;;;;;;29.77;24.41;100870.81;5116137;27;878;-35
2023/04/23 10:25:09;;;;;;;;;;;;;;;29.28;24.59;100874.16;5114165;27;866;-32
2023/04/23 10:27:42;;;;;;;;;;;;;;;28.59;25.46;100871.75;5113741;27;871;-32
2023/04/23 10:30:09;;;;;;;;;;;;;;;29.58;24.47;100871.28;5113684;27;1011;-30
2023/04/23 10:32:34;;;;;;;;;;;;;;;29.54;24.13;100877.31;5117768;27;827;-32
2023/04/23 10:35:00;;;;;;;;;;;;;;;28.46;23.96;100871.63;5112665;27;1902;-33
2023/04/23 10:37:25;;;;;;;;;;;;;;;28.65;25.48;100861.22;5118549;27;900;-36
2023/04/23 10:39:53;;;;;;;;;;;;;;;29.66;23.26;100854.06;5094811;27;906;-31
2023/04/23 10:42:18;;;;;;;;;;;;;;;30.05;22.19;100853.66;5119288;27;845;-30
2023/04/23 10:44:43;;;;;;;;;;;;;;;27.93;22.17;100853.63;5122165;27;844;-30
2023/04/23 10:47:13;;;;;;;;;;;;;;;27.14;22.94;100846.56;5116497;27;871;-31
2023/04/23 10:49:39;;;;;;;;;;;;;;;29.60;22.28;100856.72;5109835;27;870;-32
2023/04/23 10:52:14;;;;;;;;;;;;;;;29.06;20.79;100857.09;5096275;27;1077;-34
2023/04/23 10:54:41;;;;;;;;;;;;;;;28.19;23.41;100858.59;5116611;27;1913;-30
2023/04/23 10:57:06;;;;;;;;;;;;;;;29.29;22.88;100851.47;5107532;28;1074;-31
2023/04/23 10:59:33;;;;;;;;;;;;;;;29.50;22.92;100852.47;5106274;28;1242;-32
2023/04/23 11:02:08;;;;;;;;;;;;;;;28.55;24.86;100853.41;5099503;28;991;-29
2023/04/23 11:04:34;;;;;;;;;;;;;;;29.31;23.69;100854.81;5097112;28;1205;-29
2023/04/23 11:07:06;;;;;;;;;;;;;;;29.83;23.16;100853.75;5100269;28;929;-29
2023/04/23 11:09:32;;;;;;;;;;;;;;;28.87;24.47;100845.00;5097642;28;1011;-31
2023/04/23 11:12:00;;;;;;;;;;;;;;;28.75;24.73;100844.66;5096837;28;1121;-32
2023/04/23 11:14:46;;;;;;;;;;;;;;;30.11;23.25;100844.75;5096763;28;1987;-31
2023/04/23 11:17:12;;;;;;;;;;;;;;;28.95;24.60;100845.72;5096674;28;1309;-28
2023/04/23 11:19:38;;;;;;;;;;;;;;;28.83;25.07;100842.69;5107195;28;943;-32
2023/04/23 11:22:11;;;;;;;;;;;;;;;30.06;23.29;100839.06;5103657;28;1174;-34
2023/04/23 11:24:41;;;;;;;;;;;;;;;29.08;24.55;100834.19;5098555;28;1051;-35
2023/04/23 11:27:07;;;;;;;;;;;;;;;28.94;24.86;100837.78;5097223;28;1221;-30
2023/04/23 11:29:33;;;;;;;;;;;;;;;30.31;23.57;100836.69;5096965;28;1334;-28
2023/04/23 11:31:58;;;;;;;;;;;;;;;29.12;24.52;100831.09;5098146;28;1527;-32
2023/04/23 11:34:25;;;;;;;;;;;;;;;29.14;24.67;100842.59;5099825;27;1237;-28
2023/04/23 11:36:51;;;;;;;;;;;;;;;30.21;23.59;100841.69;5097410;28;1906;-32
2023/04/23 11:39:18;;;;;;;;;;;;;;;29.29;24.48;100843.34;5096957;28;1261;-31
2023/04/23 11:41:45;;;;;;;;;;;;;;;29.21;24.69;100840.78;5098741;28;901;-30
2023/04/23 11:44:11;;;;;;;;;;;;;;;30.08;23.80;100838.88;5101426;28;1189;-31
2023/04/23 11:46:37;;;;;;;;;;;;;;;29.36;24.37;100846.13;5097381;28;1142;-30
2023/04/23 11:49:02;;;;;;;;;;;;;;;29.42;24.29;100839.91;5105998;28;1174;-29
2023/04/23 11:51:28;;;;;;;;;;;;;;;30.16;23.80;100839.53;5097960;27;1510;-30
2023/04/23 11:53:53;;;;;;;;;;;;;;;29.36;24.69;100827.16;5099308;28;1095;-32
2023/04/23 11:56:19;;;;;;;;;;;;;;;29.41;24.46;100830.06;5097818;28;1914;-31
2023/04/23 11:58:45;;;;;;;;;;;;;;;30.01;23.86;100836.13;5099940;28;1268;-28
2023/04/23 12:01:13;;;;;;;;;;;;;;;29.43;24.50;100829.88;5098786;28;938;-31
2023/04/23 12:03:39;;;;;;;;;;;;;;;29.28;24.63;100825.41;5078977;28;1150;-29
2023/04/23 12:06:05;;;;;;;;;;;;;;;30.10;23.82;100821.34;5099845;28;1058;-28
2023/04/23 12:08:31;;;;;;;;;;;;;;;29.35;24.60;100822.75;5114134;28;1043;-29
2023/04/23 12:11:00;;;;;;;;;;;;;;;29.28;24.89;100819.97;5108136;28;1022;-35
2023/04/23 12:13:30;;;;;;;;;;;;;;;29.91;24.29;100820.22;5078919;28;1146;-30
2023/04/23 12:15:56;;;;;;;;;;;;;;;29.62;24.16;100819.41;5096414;28;1910;-29
2023/04/23 12:18:28;;;;;;;;;;;;;;;29.30;24.73;100808.94;5101573;28;1039;-32
2023/04/23 12:20:53;;;;;;;;;;;;;;;29.98;24.27;100815.66;5098409;28;1226;-30
2023/04/23 12:23:24;;;;;;;;;;;;;;;29.53;24.50;100808.69;5105879;28;1086;-28
2023/04/23 12:25:51;;;;;;;;;;;;;;;29.32;24.85;100804.19;5095556;28;1178;-29
2023/04/23 12:28:17;;;;;;;;;;;;;;;29.80;24.50;100802.63;5107681;28;1465;-29
2023/04/23 12:30:43;;;;;;;;;;;;;;;29.76;24.17;100799.47;5084493;28;1650;-29
2023/04/23 12:33:09;;;;;;;;;;;;;;;29.44;24.68;100807.19;5095818;28;1182;-28
2023/04/23 12:35:39;;;;;;;;;;;;;;;30.00;24.13;100807.31;5096446;28;1909;-29
2023/04/23 12:38:04;;;;;;;;;;;;;;;29.66;24.13;100791.72;5095736;28;1238;-29
2023/04/23 12:40:30;;;;;;;;;;;;;;;29.43;24.85;100791.94;5095860;28;1074;-28
2023/04/23 12:42:55;;;;;;;;;;;;;;;29.62;24.77;100797.72;5097874;28;890;-30
2023/04/23 12:45:21;;;;;;;;;;;;;;;29.89;24.51;100792.47;5096353;28;1181;-27